Time;durP1;ratioP1;P1;durP2;ratioP2;P2;SDS_P1;SDS_P2;PMS_P1;PMS_P2;Temp;Humidity;BMP_temperature;BMP_pressure;BME280_temperature;BME280_humidity;BME280_pressure;Samples;Min_cycle;Max_cycle;Signal;HPM_P1;HPM_P2
2021/11/12 00:04:06;;;;;;;6.07;4.23;;;;;;;;;;4957121;29;20329;-88
2021/11/12 00:15:00;;;;;;;6.30;4.90;;;;;;;;;;4897589;29;20208;-87
2021/11/12 00:17:31;;;;;;;4.87;4.47;;;;;;;;;;4942715;29;20241;-87
2021/11/12 00:19:59;;;;;;;8.37;4.97;;;;;;;;;;4956572;29;20213;-87
2021/11/12 00:22:27;;;;;;;5.77;5.10;;;;;;;;;;4955349;29;20264;-87
2021/11/12 00:24:56;;;;;;;6.13;4.67;;;;;;;;;;4955951;29;20248;-87
2021/11/12 00:27:25;;;;;;;4.97;4.43;;;;;;;;;;4956293;29;20285;-86
2021/11/12 00:29:59;;;;;;;5.90;4.80;;;;;;;;;;4956251;29;20682;-87
2021/11/12 00:32:38;;;;;;;7.67;5.53;;;;;;;;;;4956235;29;20622;-87
2021/11/12 00:35:25;;;;;;;5.97;5.37;;;;;;;;;;4956004;29;20197;-87
2021/11/12 00:37:56;;;;;;;9.10;6.40;;;;;;;;;;4956508;29;20655;-87
2021/11/12 00:40:27;;;;;;;9.33;7.40;;;;;;;;;;4955782;28;20237;-87
2021/11/12 00:45:42;;;;;;;8.93;6.70;;;;;;;;;;4953109;29;20590;-87
2021/11/12 00:48:15;;;;;;;7.13;6.43;;;;;;;;;;4955524;29;20194;-87
2021/11/12 00:50:59;;;;;;;10.03;5.80;;;;;;;;;;4955824;29;20272;-87
2021/11/12 00:56:11;;;;;;;8.10;5.67;;;;;;;;;;4955729;29;20177;-87
2021/11/12 00:58:38;;;;;;;6.10;5.57;;;;;;;;;;4955491;29;20587;-87
2021/11/12 01:01:06;;;;;;;7.17;5.37;;;;;;;;;;4955323;29;20225;-87
2021/11/12 01:03:35;;;;;;;5.90;5.10;;;;;;;;;;4955569;29;20210;-87
2021/11/12 01:06:02;;;;;;;5.70;5.10;;;;;;;;;;4955125;28;20637;-87
2021/11/12 01:08:30;;;;;;;6.70;5.13;;;;;;;;;;4954395;29;20706;-87
2021/11/12 01:10:57;;;;;;;6.00;5.00;;;;;;;;;;4955440;29;20682;-87
2021/11/12 01:13:25;;;;;;;5.50;5.00;;;;;;;;;;4955013;29;20201;-86
2021/11/12 01:15:52;;;;;;;6.93;5.03;;;;;;;;;;4955381;29;20198;-87
2021/11/12 01:18:20;;;;;;;5.77;4.93;;;;;;;;;;4955117;29;20229;-87
2021/11/12 01:20:49;;;;;;;8.00;6.23;;;;;;;;;;4955316;29;20657;-87
2021/11/12 01:23:18;;;;;;;8.10;7.17;;;;;;;;;;4955148;29;20754;-87
2021/11/12 01:25:45;;;;;;;8.73;6.93;;;;;;;;;;4955266;29;20297;-86
2021/11/12 01:28:13;;;;;;;10.63;9.53;;;;;;;;;;4954875;29;20269;-87
2021/11/12 01:30:40;;;;;;;9.50;8.10;;;;;;;;;;4955043;29;20198;-87
2021/11/12 01:33:08;;;;;;;6.87;6.17;;;;;;;;;;4954752;29;20213;-86
2021/11/12 01:35:37;;;;;;;7.57;6.30;;;;;;;;;;4954833;29;20264;-87
2021/11/12 01:38:06;;;;;;;7.50;5.83;;;;;;;;;;4954859;29;20284;-86
2021/11/12 01:40:33;;;;;;;8.73;6.70;;;;;;;;;;4954499;29;20237;-87
2021/11/12 01:43:07;;;;;;;7.30;6.13;;;;;;;;;;4954937;29;20209;-87
2021/11/12 01:51:07;;;;;;;12.87;9.40;;;;;;;;;;4941401;29;20302;-87
2021/11/12 01:53:38;;;;;;;12.73;9.50;;;;;;;;;;4954472;29;20194;-87
2021/11/12 01:56:26;;;;;;;8.83;7.17;;;;;;;;;;4952538;29;20213;-90
2021/11/12 01:59:07;;;;;;;9.30;6.53;;;;;;;;;;4954815;28;20190;-89
2021/11/12 02:01:38;;;;;;;10.40;7.80;;;;;;;;;;4955033;28;20220;-89
2021/11/12 02:04:06;;;;;;;11.73;10.20;;;;;;;;;;4955147;28;20288;-89
2021/11/12 02:06:34;;;;;;;26.03;18.03;;;;;;;;;;4954936;29;20269;-89
2021/11/12 02:09:08;;;;;;;13.40;9.80;;;;;;;;;;4954747;28;20300;-90
2021/11/12 02:11:36;;;;;;;17.27;11.70;;;;;;;;;;4955004;28;20185;-89
2021/11/12 02:14:04;;;;;;;7.30;6.60;;;;;;;;;;4954954;29;20225;-88
2021/11/12 02:16:36;;;;;;;10.07;8.47;;;;;;;;;;4954119;28;20209;-85
2021/11/12 02:19:05;;;;;;;19.40;10.77;;;;;;;;;;4953499;28;20194;-86
2021/11/12 02:21:38;;;;;;;9.50;6.83;;;;;;;;;;4953583;29;20362;-86
2021/11/12 02:24:08;;;;;;;7.03;6.10;;;;;;;;;;4954375;28;20699;-86
2021/11/12 02:26:38;;;;;;;8.63;6.70;;;;;;;;;;4954377;28;20567;-85
2021/11/12 02:29:07;;;;;;;7.57;6.63;;;;;;;;;;4953679;28;20198;-87
2021/11/12 02:31:35;;;;;;;6.87;5.33;;;;;;;;;;4953922;28;20193;-86
2021/11/12 02:34:06;;;;;;;7.23;6.03;;;;;;;;;;4954041;28;20280;-86
2021/11/12 02:36:35;;;;;;;6.20;5.60;;;;;;;;;;4953733;28;20745;-86
2021/11/12 02:39:05;;;;;;;13.83;7.17;;;;;;;;;;4953625;28;20233;-86
2021/11/12 02:41:32;;;;;;;8.13;6.70;;;;;;;;;;4953434;28;20234;-86
2021/11/12 02:44:00;;;;;;;8.00;7.07;;;;;;;;;;4954043;28;20706;-86
2021/11/12 02:46:28;;;;;;;7.90;7.10;;;;;;;;;;4953375;28;20324;-86
2021/11/12 02:48:56;;;;;;;7.90;6.70;;;;;;;;;;4953835;28;20290;-86
2021/11/12 02:51:27;;;;;;;8.97;7.07;;;;;;;;;;4953756;28;20633;-86
2021/11/12 02:53:58;;;;;;;9.80;8.43;;;;;;;;;;4953781;28;20208;-86
2021/11/12 02:56:27;;;;;;;8.97;7.77;;;;;;;;;;4953749;28;20186;-86
2021/11/12 02:58:57;;;;;;;10.80;9.77;;;;;;;;;;4953690;28;20198;-86
2021/11/12 03:01:26;;;;;;;8.83;6.90;;;;;;;;;;4953339;28;20235;-86
2021/11/12 03:03:54;;;;;;;5.70;5.10;;;;;;;;;;4953074;29;20240;-86
2021/11/12 03:06:22;;;;;;;7.33;6.63;;;;;;;;;;4953885;29;20230;-85
2021/11/12 03:08:50;;;;;;;7.77;6.47;;;;;;;;;;4951806;28;20238;-86
2021/11/12 03:11:19;;;;;;;8.40;6.13;;;;;;;;;;4953709;28;20256;-87
2021/11/12 03:13:47;;;;;;;7.27;6.67;;;;;;;;;;4953945;28;20296;-87
2021/11/12 03:16:33;;;;;;;7.83;7.00;;;;;;;;;;4953628;28;20213;-87
2021/11/12 03:19:01;;;;;;;8.30;7.40;;;;;;;;;;4954148;28;20214;-87
2021/11/12 03:21:28;;;;;;;9.20;7.73;;;;;;;;;;4953450;28;20236;-86
2021/11/12 03:23:59;;;;;;;8.27;7.03;;;;;;;;;;4954071;28;20205;-87
2021/11/12 03:26:35;;;;;;;7.97;7.20;;;;;;;;;;4953557;28;20289;-87
2021/11/12 03:29:40;;;;;;;8.00;6.77;;;;;;;;;;4953584;28;20198;-87
2021/11/12 03:59:58;;;;;;;32.03;26.07;;;;;;;;;;4956497;28;20193;-86
2021/11/12 04:02:37;;;;;;;208.00;105.53;;;;;;;;;;4955899;29;20308;-87
2021/11/12 04:05:15;;;;;;;128.17;64.40;;;;;;;;;;4956168;29;20233;-87
2021/11/12 04:18:50;;;;;;;104.73;54.03;;;;;;;;;;4956230;29;20264;-87
2021/11/12 05:11:30;;;;;;;6.37;5.03;;;;;;;;;;5116209;27;20194;-88
2021/11/12 05:44:42;;;;;;;13.50;11.47;;;;;;;;;;5115622;28;20228;-88
2021/11/12 05:50:01;;;;;;;19.93;12.87;;;;;;;;;;5114798;28;20180;-88
2021/11/12 05:55:10;;;;;;;15.10;12.50;;;;;;;;;;5114618;28;20179;-88
2021/11/12 05:57:38;;;;;;;13.10;11.10;;;;;;;;;;5115531;28;20635;-88
2021/11/12 06:00:07;;;;;;;18.10;11.40;;;;;;;;;;5115739;28;20223;-88
2021/11/12 06:02:36;;;;;;;14.17;12.30;;;;;;;;;;5115946;28;20255;-88
2021/11/12 06:05:03;;;;;;;14.27;12.53;;;;;;;;;;5115448;28;20860;-88
2021/11/12 06:07:31;;;;;;;14.43;12.83;;;;;;;;;;5115387;28;20234;-88
2021/11/12 06:09:58;;;;;;;20.70;15.43;;;;;;;;;;5115228;28;20198;-87
2021/11/12 06:12:26;;;;;;;12.23;10.37;;;;;;;;;;5115219;28;20667;-88
2021/11/12 06:14:54;;;;;;;14.47;11.47;;;;;;;;;;5115365;28;20207;-88
2021/11/12 06:17:21;;;;;;;11.23;10.13;;;;;;;;;;5115671;28;20195;-88
2021/11/12 06:19:50;;;;;;;13.20;10.50;;;;;;;;;;5115222;28;20227;-89
2021/11/12 06:22:17;;;;;;;12.07;10.10;;;;;;;;;;5114958;28;20241;-89
2021/11/12 06:24:45;;;;;;;12.77;10.47;;;;;;;;;;5115454;28;20583;-89
2021/11/12 06:27:12;;;;;;;11.67;9.27;;;;;;;;;;5115534;28;20187;-90
2021/11/12 06:29:40;;;;;;;12.37;9.83;;;;;;;;;;5115508;28;20233;-90
2021/11/12 06:32:08;;;;;;;15.37;9.73;;;;;;;;;;5115371;28;20203;-91
2021/11/12 06:34:35;;;;;;;11.73;9.73;;;;;;;;;;5115365;28;20259;-92
2021/11/12 06:37:05;;;;;;;12.57;10.30;;;;;;;;;;5115054;28;20200;-92
2021/11/12 06:39:32;;;;;;;19.87;12.87;;;;;;;;;;5114974;28;20195;-93
2021/11/12 06:42:02;;;;;;;15.20;11.03;;;;;;;;;;5114788;28;20714;-93
2021/11/12 06:49:16;;;;;;;11.70;10.10;;;;;;;;;;5114841;28;20203;-94
2021/11/12 06:50:25;;;;;;;14.80;11.10;;;;;;;;;;5115170;28;20179;-95
2021/11/12 06:52:54;;;;;;;11.07;9.87;;;;;;;;;;5115709;28;20227;-96
2021/11/12 06:55:21;;;;;;;14.47;10.30;;;;;;;;;;5114887;28;20202;-96
2021/11/12 06:57:49;;;;;;;8.70;7.80;;;;;;;;;;5114865;28;20206;-95
2021/11/12 07:00:18;;;;;;;8.57;7.73;;;;;;;;;;5114710;28;20206;-96
2021/11/12 07:02:46;;;;;;;10.83;7.90;;;;;;;;;;5114820;28;20225;-96
2021/11/12 07:05:13;;;;;;;14.13;7.17;;;;;;;;;;5114488;28;20202;-95
2021/11/12 07:07:41;;;;;;;9.30;8.27;;;;;;;;;;5114636;28;20574;-96
2021/11/12 07:10:11;;;;;;;11.20;8.73;;;;;;;;;;5114506;28;20190;-96
2021/11/12 07:12:39;;;;;;;9.50;7.63;;;;;;;;;;5114422;28;20195;-96
2021/11/12 07:15:07;;;;;;;9.23;8.33;;;;;;;;;;5114535;28;20238;-96
2021/11/12 07:17:35;;;;;;;9.53;8.03;;;;;;;;;;5114554;28;20226;-96
2021/11/12 07:20:03;;;;;;;9.93;8.53;;;;;;;;;;5114451;28;20682;-96
2021/11/12 07:22:30;;;;;;;8.13;6.77;;;;;;;;;;5114232;28;20229;-96
2021/11/12 07:24:58;;;;;;;10.03;7.20;;;;;;;;;;5115022;28;20195;-96
2021/11/12 07:27:27;;;;;;;8.37;6.70;;;;;;;;;;5115361;28;20226;-96
2021/11/12 07:29:54;;;;;;;9.33;6.97;;;;;;;;;;5119724;28;20199;-96
2021/11/12 07:32:22;;;;;;;10.37;7.53;;;;;;;;;;5117212;28;20691;-96
2021/11/12 07:34:51;;;;;;;7.67;6.93;;;;;;;;;;5118446;28;20282;-96
2021/11/12 07:37:19;;;;;;;13.83;8.23;;;;;;;;;;5117183;28;20192;-96
2021/11/12 07:39:52;;;;;;;8.13;6.83;;;;;;;;;;5116358;28;20260;-96
2021/11/12 07:42:29;;;;;;;8.87;7.97;;;;;;;;;;5117583;28;20195;-96
2021/11/12 07:47:42;;;;;;;10.53;6.90;;;;;;;;;;5116470;28;20223;-96
2021/11/12 07:50:12;;;;;;;7.77;6.73;;;;;;;;;;5116579;28;20231;-96
2021/11/12 07:52:40;;;;;;;7.87;7.07;;;;;;;;;;5117015;28;20728;-96
2021/11/12 07:55:10;;;;;;;13.87;6.37;;;;;;;;;;5115283;28;20203;-96
2021/11/12 07:57:38;;;;;;;6.53;5.43;;;;;;;;;;5113717;28;20199;-96
2021/11/12 08:00:09;;;;;;;6.63;5.60;;;;;;;;;;5114256;28;20191;-96
2021/11/12 08:02:37;;;;;;;6.83;6.03;;;;;;;;;;5113673;28;20301;-96
2021/11/12 08:05:11;;;;;;;8.30;6.17;;;;;;;;;;5114693;28;20257;-96
2021/11/12 08:07:40;;;;;;;9.43;8.37;;;;;;;;;;5116671;28;20207;-96
2021/11/12 08:10:11;;;;;;;7.37;5.70;;;;;;;;;;5117481;28;20206;-96
2021/11/12 08:12:41;;;;;;;6.50;5.90;;;;;;;;;;5116386;28;20715;-96
2021/11/12 08:15:27;;;;;;;6.43;5.73;;;;;;;;;;5117710;28;20195;-96
2021/11/12 08:18:06;;;;;;;6.33;5.70;;;;;;;;;;5123435;28;20282;-96
2021/11/12 08:20:36;;;;;;;8.43;5.97;;;;;;;;;;5119401;28;20199;-96
2021/11/12 08:23:11;;;;;;;16.27;7.27;;;;;;;;;;5118524;28;20669;-96
2021/11/12 08:25:42;;;;;;;9.03;5.50;;;;;;;;;;5120771;28;20205;-96
2021/11/12 08:28:17;;;;;;;7.57;5.03;;;;;;;;;;5118620;28;20207;-96
2021/11/12 08:31:19;;;;;;;7.97;4.97;;;;;;;;;;5120433;28;20206;-96
2021/11/12 08:33:49;;;;;;;5.03;4.33;;;;;;;;;;5121501;28;20191;-96
2021/11/12 08:39:24;;;;;;;12.43;5.33;;;;;;;;;;5076072;28;20227;-96
2021/11/12 08:41:55;;;;;;;8.23;5.23;;;;;;;;;;5127772;28;20578;-96
2021/11/12 08:44:27;;;;;;;5.90;5.23;;;;;;;;;;5129349;28;20223;-96
2021/11/12 08:47:05;;;;;;;7.60;5.37;;;;;;;;;;5110519;28;20648;-96
2021/11/12 08:49:38;;;;;;;10.97;4.87;;;;;;;;;;5131623;28;20195;-96
2021/11/12 08:52:12;;;;;;;9.10;4.93;;;;;;;;;;5133517;28;20191;-96
2021/11/12 08:54:44;;;;;;;5.17;4.67;;;;;;;;;;5132961;28;20215;-96
2021/11/12 08:57:17;;;;;;;5.50;4.90;;;;;;;;;;5133904;28;20204;-96
2021/11/12 09:13:18;;;;;;;6.10;4.43;;;;;;;;;;5612078;22;20215;31
2021/11/12 09:15:49;;;;;;;5.87;4.60;;;;;;;;;;5498637;23;20232;-96
2021/11/12 09:20:54;;;;;;;4.87;4.20;;;;;;;;;;5178990;22;20315;-96
2021/11/12 09:23:24;;;;;;;7.90;4.63;;;;;;;;;;5146807;23;20241;-96
2021/11/12 09:25:55;;;;;;;6.90;4.30;;;;;;;;;;5078341;28;20182;-96
2021/11/12 09:28:46;;;;;;;8.00;5.00;;;;;;;;;;5649739;22;20423;31
2021/11/12 09:31:15;;;;;;;10.27;5.13;;;;;;;;;;5138781;23;20207;-96
2021/11/12 09:33:43;;;;;;;4.50;3.57;;;;;;;;;;5502641;22;20290;-96
2021/11/12 09:38:52;;;;;;;5.27;4.57;;;;;;;;;;5514793;22;20245;-96
2021/11/12 09:59:08;;;;;;;5.50;4.13;;;;;;;;;;5481183;22;20377;-96
2021/11/12 10:01:40;;;;;;;9.07;4.53;;;;;;;;;;5034210;28;20241;-95
2021/11/12 10:04:09;;;;;;;5.23;4.20;;;;;;;;;;5038490;28;20227;-96
2021/11/12 10:06:39;;;;;;;3.43;3.13;;;;;;;;;;5396780;22;20243;-96
2021/11/12 11:16:02;;;;;;;3.73;2.80;;;;;;;;;;5417941;23;20248;-96
2021/11/12 11:21:24;;;;;;;4.70;2.80;;;;;;;;;;6021396;23;20185;-96
2021/11/12 11:23:53;;;;;;;2.63;2.43;;;;;;;;;;5416459;23;20208;-96
2021/11/12 11:26:27;;;;;;;4.47;2.30;;;;;;;;;;5611549;23;20231;-96
2021/11/12 11:34:01;;;;;;;6.90;2.60;;;;;;;;;;5419578;23;20210;31
2021/11/12 11:39:10;;;;;;;3.73;2.37;;;;;;;;;;5112573;23;20456;-96
2021/11/12 11:44:13;;;;;;;3.27;2.57;;;;;;;;;;5693283;23;20247;-96
2021/11/12 11:46:42;;;;;;;2.00;1.90;;;;;;;;;;5151117;23;20250;-96
2021/11/12 11:49:11;;;;;;;2.50;2.30;;;;;;;;;;5138253;23;20231;-96
2021/11/12 11:54:11;;;;;;;2.70;2.20;;;;;;;;;;4973703;28;20229;-96
2021/11/12 11:56:42;;;;;;;1.83;1.73;;;;;;;;;;4960253;29;20217;-96
2021/11/12 11:59:11;;;;;;;2.83;2.27;;;;;;;;;;5041468;23;20256;-96
2021/11/12 12:01:42;;;;;;;4.13;2.53;;;;;;;;;;5014842;28;20212;-96
2021/11/12 12:04:56;;;;;;;2.80;2.60;;;;;;;;;;5010205;28;20299;-96
2021/11/12 12:07:42;;;;;;;3.27;2.73;;;;;;;;;;5009651;28;20215;-96
2021/11/12 12:10:32;;;;;;;4.97;3.03;;;;;;;;;;4996762;28;20279;-96
2021/11/12 12:13:06;;;;;;;2.57;2.37;;;;;;;;;;5012819;28;20201;-96
2021/11/12 12:15:37;;;;;;;2.60;2.40;;;;;;;;;;5008748;28;20199;-96
2021/11/12 12:18:11;;;;;;;2.87;2.67;;;;;;;;;;5009036;28;20218;-96
2021/11/12 12:34:57;;;;;;;2.73;2.37;;;;;;;;;;5092058;23;20230;-96
2021/11/12 13:22:45;;;;;;;3.70;1.87;;;;;;;;;;4999825;28;20184;-96
2021/11/12 13:25:22;;;;;;;3.00;2.30;;;;;;;;;;4998715;28;20682;-96
2021/11/12 13:27:49;;;;;;;3.40;2.13;;;;;;;;;;4999224;28;20227;-96
2021/11/12 13:30:28;;;;;;;2.47;2.23;;;;;;;;;;5000218;28;20206;-95
2021/11/12 13:32:56;;;;;;;2.20;2.00;;;;;;;;;;4998346;28;20184;-96
2021/11/12 13:35:29;;;;;;;3.93;2.37;;;;;;;;;;4999807;28;20199;-96
2021/11/12 13:37:56;;;;;;;4.80;2.70;;;;;;;;;;5000959;28;20279;-94
2021/11/12 13:40:24;;;;;;;9.20;5.00;;;;;;;;;;4998314;28;20236;-95
2021/11/12 13:42:52;;;;;;;5.97;3.30;;;;;;;;;;4998697;28;20228;-95
2021/11/12 13:45:21;;;;;;;2.90;2.20;;;;;;;;;;4998465;28;20315;-95
2021/11/12 13:48:02;;;;;;;3.07;2.60;;;;;;;;;;4998565;28;20267;-96
2021/11/12 13:50:29;;;;;;;3.80;3.07;;;;;;;;;;4999491;28;20668;-94
2021/11/12 13:52:57;;;;;;;4.47;2.47;;;;;;;;;;4999868;28;20214;-95
2021/11/12 13:55:25;;;;;;;2.83;2.60;;;;;;;;;;4997491;28;20200;-96
2021/11/12 13:57:57;;;;;;;4.20;3.03;;;;;;;;;;4999494;28;20200;-96
2021/11/12 14:00:28;;;;;;;3.63;2.53;;;;;;;;;;4998710;28;20193;-96
2021/11/12 14:03:02;;;;;;;3.20;2.40;;;;;;;;;;4999977;28;20204;-96
2021/11/12 14:05:32;;;;;;;3.03;2.60;;;;;;;;;;4999225;28;20609;-96
2021/11/12 14:08:04;;;;;;;3.30;3.00;;;;;;;;;;4998492;28;20664;-96
2021/11/12 14:10:38;;;;;;;6.23;2.70;;;;;;;;;;4998308;28;20756;-96
2021/11/12 14:13:07;;;;;;;10.60;7.87;;;;;;;;;;4999701;28;20271;-96
2021/11/12 14:15:39;;;;;;;7.53;5.30;;;;;;;;;;5000023;28;20192;-96
2021/11/12 14:18:27;;;;;;;5.23;4.73;;;;;;;;;;4999857;28;20252;-96
2021/11/12 14:21:10;;;;;;;10.00;8.97;;;;;;;;;;4999480;28;20219;-95
2021/11/12 14:23:57;;;;;;;14.47;10.30;;;;;;;;;;4997850;28;20207;-96
2021/11/12 14:26:28;;;;;;;6.03;4.70;;;;;;;;;;4996855;28;20210;-96
2021/11/12 14:28:59;;;;;;;5.33;3.30;;;;;;;;;;4996840;28;20196;-96
2021/11/12 14:31:45;;;;;;;12.33;10.40;;;;;;;;;;4996701;28;20211;-96
2021/11/12 14:34:23;;;;;;;21.43;12.50;;;;;;;;;;4996616;28;20782;-96
2021/11/12 14:36:55;;;;;;;127.53;85.50;;;;;;;;;;4997382;28;20675;-96
2021/11/12 14:45:12;;;;;;;11.77;8.57;;;;;;;;;;4955587;29;20213;-96
2021/11/12 14:47:49;;;;;;;15.17;9.50;;;;;;;;;;4955534;29;20205;-96
2021/11/12 14:50:28;;;;;;;9.27;4.37;;;;;;;;;;4958472;29;20209;-96
2021/11/12 14:53:29;;;;;;;11.93;7.70;;;;;;;;;;4957594;29;20213;-96
2021/11/12 14:56:05;;;;;;;4.60;3.93;;;;;;;;;;4958993;29;20252;-95
2021/11/12 14:58:33;;;;;;;5.33;4.77;;;;;;;;;;4959338;29;20215;-96
2021/11/12 15:01:03;;;;;;;10.37;7.07;;;;;;;;;;4960818;29;20286;-96
2021/11/12 15:03:30;;;;;;;28.13;21.60;;;;;;;;;;4959231;29;20242;-96
2021/11/12 15:05:58;;;;;;;20.40;16.50;;;;;;;;;;4957346;28;20221;-96
2021/11/12 15:08:28;;;;;;;20.27;16.30;;;;;;;;;;4954978;29;20209;-96
2021/11/12 15:10:57;;;;;;;105.70;69.30;;;;;;;;;;4936392;29;20253;-96
2021/11/12 15:13:28;;;;;;;37.17;30.70;;;;;;;;;;4958400;28;20201;-96
2021/11/12 15:19:25;;;;;;;20.10;13.47;;;;;;;;;;4904630;28;20307;-96
2021/11/12 15:21:58;;;;;;;8.67;5.47;;;;;;;;;;4978664;28;20214;-96
2021/11/12 15:24:34;;;;;;;6.03;4.20;;;;;;;;;;4975482;28;20308;-96
2021/11/12 15:27:09;;;;;;;4.10;3.70;;;;;;;;;;4975146;28;20209;-96
2021/11/12 15:29:38;;;;;;;7.90;7.10;;;;;;;;;;4975047;28;20196;-96
2021/11/12 15:32:14;;;;;;;8.33;6.30;;;;;;;;;;4975355;28;20587;-95
2021/11/12 15:34:46;;;;;;;5.00;3.90;;;;;;;;;;4974692;28;20259;-96
2021/11/12 15:37:20;;;;;;;3.90;3.60;;;;;;;;;;5012279;28;20209;-94
2021/11/12 15:39:58;;;;;;;5.33;4.83;;;;;;;;;;5013772;28;20203;-96
2021/11/12 15:42:56;;;;;;;13.57;8.67;;;;;;;;;;5013556;28;20203;-96
2021/11/12 15:45:26;;;;;;;12.43;10.73;;;;;;;;;;5014398;28;20223;-95
2021/11/12 15:47:55;;;;;;;16.30;9.93;;;;;;;;;;5013962;28;20664;-95
2021/11/12 15:50:26;;;;;;;30.13;18.43;;;;;;;;;;5013786;28;20211;-95
2021/11/12 15:53:10;;;;;;;14.30;7.87;;;;;;;;;;5014049;28;20211;-95
2021/11/12 15:55:51;;;;;;;8.73;7.03;;;;;;;;;;5014219;28;20200;-95
2021/11/12 16:01:25;;;;;;;17.93;14.50;;;;;;;;;;5014581;28;20187;-96
2021/11/12 16:10:10;;;;;;;21.00;17.10;;;;;;;;;;4947536;28;20239;-95
2021/11/12 16:12:49;;;;;;;22.83;15.97;;;;;;;;;;4993729;28;20204;-96
2021/11/12 16:15:26;;;;;;;20.97;14.13;;;;;;;;;;4993742;28;20199;-95
2021/11/12 16:17:59;;;;;;;24.70;18.30;;;;;;;;;;4993760;28;20724;-95
2021/11/12 16:26:06;;;;;;;30.03;21.10;;;;;;;;;;4974012;28;20229;-96
2021/11/12 16:28:47;;;;;;;32.53;23.37;;;;;;;;;;4974229;28;20219;-96
2021/11/12 16:31:16;;;;;;;23.90;17.47;;;;;;;;;;4954665;29;20221;-95
2021/11/12 16:33:44;;;;;;;23.70;16.13;;;;;;;;;;4954637;29;20245;-95
2021/11/12 16:36:11;;;;;;;20.70;14.07;;;;;;;;;;4971860;28;20285;-96
2021/11/12 16:38:39;;;;;;;12.13;10.43;;;;;;;;;;4974037;28;20216;-95
2021/11/12 16:41:10;;;;;;;15.63;8.90;;;;;;;;;;4974158;28;20285;-96
2021/11/12 16:43:56;;;;;;;17.20;8.07;;;;;;;;;;4973991;28;20197;-94
2021/11/12 16:46:33;;;;;;;11.03;6.37;;;;;;;;;;4973661;28;20333;-94
2021/11/12 16:49:07;;;;;;;8.67;6.83;;;;;;;;;;4973866;28;20674;-96
2021/11/12 16:54:26;;;;;;;6.23;5.63;;;;;;;;;;4953988;29;20210;-94
2021/11/12 16:57:03;;;;;;;7.23;5.70;;;;;;;;;;4954615;29;20209;-95
2021/11/12 16:59:37;;;;;;;7.27;6.33;;;;;;;;;;4954491;29;20563;-96
2021/11/12 17:02:18;;;;;;;7.37;6.30;;;;;;;;;;4954607;29;20201;-96
2021/11/12 17:05:02;;;;;;;8.27;5.43;;;;;;;;;;4954727;29;20213;-94
2021/11/12 17:10:21;;;;;;;8.03;5.77;;;;;;;;;;4950683;29;20204;-95
2021/11/12 17:13:03;;;;;;;10.07;6.33;;;;;;;;;;4954516;29;20208;-95
2021/11/12 17:15:40;;;;;;;18.93;12.90;;;;;;;;;;4954304;29;20202;-94
2021/11/12 17:18:27;;;;;;;36.93;27.03;;;;;;;;;;4954421;29;20201;-95
2021/11/12 17:48:31;;;;;;;9.83;6.37;;;;;;;;;;4968478;28;20255;-95
2021/11/12 18:02:13;;;;;;;8.63;5.77;;;;;;;;;;4976808;28;20188;-96
2021/11/12 18:05:01;;;;;;;8.63;6.40;;;;;;;;;;4976381;28;20201;-95
2021/11/12 18:13:42;;;;;;;7.63;5.97;;;;;;;;;;4976424;28;20245;-95
2021/11/12 21:48:37;;;;;;;22.83;20.07;;;;;;;;;;4912725;29;20250;-96
2021/11/12 21:51:06;;;;;;;12.17;10.53;;;;;;;;;;4956280;28;20212;-95
2021/11/12 21:53:34;;;;;;;14.90;12.30;;;;;;;;;;4976807;28;20201;-95
2021/11/12 21:56:02;;;;;;;8.87;8.00;;;;;;;;;;4976946;28;20627;-95
2021/11/12 21:58:30;;;;;;;9.23;7.80;;;;;;;;;;4976596;28;20287;-94
2021/11/12 22:00:59;;;;;;;10.87;9.83;;;;;;;;;;4976486;28;20291;-94
2021/11/12 22:03:28;;;;;;;9.17;8.27;;;;;;;;;;4976145;28;20224;-93
2021/11/12 22:05:56;;;;;;;9.47;7.47;;;;;;;;;;4976233;28;20713;-93
2021/11/12 22:08:28;;;;;;;10.27;6.63;;;;;;;;;;4976216;28;20262;-93
2021/11/12 22:10:55;;;;;;;6.80;6.20;;;;;;;;;;4976293;28;20212;-94
2021/11/12 22:13:23;;;;;;;6.47;5.53;;;;;;;;;;4976209;28;20774;-93
2021/11/12 22:15:50;;;;;;;8.43;5.80;;;;;;;;;;4975892;28;20196;-94
2021/11/12 22:18:17;;;;;;;8.80;5.97;;;;;;;;;;4976054;28;20197;-93
2021/11/12 22:20:44;;;;;;;8.87;6.93;;;;;;;;;;4975989;28;20212;-93
2021/11/12 22:23:12;;;;;;;9.67;7.90;;;;;;;;;;4976098;28;20669;-93
2021/11/12 22:25:40;;;;;;;10.00;8.20;;;;;;;;;;4976365;28;20328;-94
2021/11/12 22:28:08;;;;;;;9.17;8.27;;;;;;;;;;4976224;28;20661;-93
2021/11/12 22:30:37;;;;;;;12.57;9.73;;;;;;;;;;4975762;28;20197;-93
2021/11/12 22:33:05;;;;;;;8.37;7.47;;;;;;;;;;4975517;28;20244;-93
2021/11/12 22:35:32;;;;;;;8.23;7.43;;;;;;;;;;4975777;28;20191;-93
2021/11/12 22:38:00;;;;;;;7.83;7.03;;;;;;;;;;4975538;28;20200;-93
2021/11/12 22:40:27;;;;;;;8.13;7.33;;;;;;;;;;4976266;28;20200;-94
2021/11/12 22:42:56;;;;;;;11.53;7.63;;;;;;;;;;4975946;28;20268;-92
2021/11/12 22:45:23;;;;;;;7.53;6.83;;;;;;;;;;4975682;28;20204;-93
2021/11/12 22:47:50;;;;;;;9.00;8.10;;;;;;;;;;4975602;28;20216;-92
2021/11/12 22:50:18;;;;;;;9.53;8.63;;;;;;;;;;4975298;28;20197;-92
2021/11/12 22:52:46;;;;;;;10.47;9.40;;;;;;;;;;4975887;28;20699;-93
2021/11/12 22:55:13;;;;;;;11.37;9.67;;;;;;;;;;4975741;28;20207;-93
2021/11/12 22:57:41;;;;;;;9.93;8.93;;;;;;;;;;4975608;28;20212;-93
2021/11/12 23:00:18;;;;;;;10.60;9.50;;;;;;;;;;4975456;28;20666;-91
2021/11/12 23:02:45;;;;;;;10.03;9.03;;;;;;;;;;4975476;28;20224;-91
2021/11/12 23:05:13;;;;;;;12.20;10.73;;;;;;;;;;4975368;28;20213;-93
2021/11/12 23:07:40;;;;;;;8.93;8.03;;;;;;;;;;4975072;28;20235;-92
2021/11/12 23:10:08;;;;;;;9.13;8.23;;;;;;;;;;4975369;28;20197;-93
2021/11/12 23:12:35;;;;;;;9.77;7.63;;;;;;;;;;4975584;28;20201;-93
2021/11/12 23:15:03;;;;;;;8.10;7.20;;;;;;;;;;4975175;28;20201;-92
2021/11/12 23:17:32;;;;;;;10.63;7.80;;;;;;;;;;4975264;28;20740;-91
2021/11/12 23:19:59;;;;;;;8.47;7.37;;;;;;;;;;4975180;28;20189;-92
2021/11/12 23:22:26;;;;;;;8.70;7.80;;;;;;;;;;4975367;28;20292;-92
2021/11/12 23:24:54;;;;;;;10.30;7.53;;;;;;;;;;4974958;28;20198;-91
2021/11/12 23:27:21;;;;;;;9.67;7.70;;;;;;;;;;4974448;28;20229;-92
2021/11/12 23:29:48;;;;;;;9.37;8.33;;;;;;;;;;4974739;28;20260;-92
2021/11/12 23:32:16;;;;;;;12.23;10.90;;;;;;;;;;4974938;28;20204;-92
2021/11/12 23:34:45;;;;;;;13.17;10.37;;;;;;;;;;4974619;28;20311;-91
2021/11/12 23:37:12;;;;;;;11.97;10.77;;;;;;;;;;4974541;28;20207;-91
2021/11/12 23:39:39;;;;;;;10.50;9.30;;;;;;;;;;4974522;28;20201;-91
2021/11/12 23:42:06;;;;;;;8.90;8.07;;;;;;;;;;4974525;28;20208;-91
2021/11/12 23:44:34;;;;;;;9.37;7.93;;;;;;;;;;4974514;28;20292;-91
2021/11/12 23:47:01;;;;;;;14.17;8.23;;;;;;;;;;4974473;28;20267;-91
2021/11/12 23:49:28;;;;;;;10.13;7.50;;;;;;;;;;4974941;28;20193;-91
2021/11/12 23:51:57;;;;;;;8.73;7.83;;;;;;;;;;4974893;28;20634;-91
2021/11/12 23:54:24;;;;;;;14.07;7.97;;;;;;;;;;4974459;28;20232;-91
2021/11/12 23:56:51;;;;;;;9.93;8.37;;;;;;;;;;4974763;28;20287;-91
2021/11/12 23:59:19;;;;;;;9.27;7.60;;;;;;;;;;4974619;28;20276;-90
